Currently N/A°F in Moreno Valley, California, USA
N/A°F Alert
N/A°F / N/A°F
N/A
N/A
Friday, September 20, 2019 2:51 AM PDT

Moreno Valley, California Weather Summary
Last 36 Hours

Temperature Winds Hourly Humidity Dewpoint
Time Report Norm Report Norm Max Gusts Precip. Rpt. Norm Rpt. Norm Pressure
1Thu 05:44 PM  76.5°F  85°F  8 mph NW  6 mph  11 mph  0.00"  58%  36%  60°F  54°F  27.93"
Thu 05:00 PM  79.8°F  87°F  6 mph NW  6 mph  14 mph  0.00"  52%  32%  60°F  53°F  27.93"
Thu 04:00 PM  82.6°F  89°F  5 mph W  6 mph  16 mph  0.00"  42%  28%  57°F  51°F  27.94"
2Thu 03:41 PM  82.7°F  90°F  6 mph W  6 mph  16 mph  ----  41%  28%  56°F  51°F  27.94"
Thu 03:00 PM  81.6°F  90°F  6 mph W  6 mph  12 mph  0.00"  44%  27%  57°F  50°F  27.95"
Thu 02:00 PM  80.7°F  89°F  5 mph W  5 mph  11 mph  0.00"  43%  27%  55°F  50°F  27.98"
Thu 01:00 PM  78.3°F  87°F  6 mph W  5 mph  10 mph  0.00"  48%  30%  56°F  51°F  28.00"
Thu 12:00 PM  76.0°F  85°F  calm  4 mph  10 mph  0.00"  47%  33%  54°F  52°F  28.03"
Thu 11:00 AM  72.1°F  82°F  5 mph SW  3 mph  7 mph  0.00"  58%  40%  56°F  54°F  28.05"
Thu 10:00 AM  69.2°F  78°F  1 mph S  2 mph  7 mph  0.00"  61%  47%  55°F  56°F  28.06"
Thu 09:00 AM  65.1°F  74°F  calm  2 mph  6 mph  0.00"  70%  55%  55°F  57°F  28.07"
Thu 08:00 AM  60.6°F  70°F  calm  1 mph  none  0.00"  83%  62%  55°F  56°F  28.07"
3Thu 07:01 AM  56.4°F  64°F  calm  1 mph  none  ----  88%  68%  53°F  53°F  28.06"
Thu 07:00 AM  56.4°F  64°F  calm  1 mph  none  0.00"  88%  69%  53°F  53°F  28.06"
Thu 06:00 AM  56.6°F  64°F  calm  1 mph  none  0.00"  85%  68%  52°F  53°F  28.02"
Thu 05:00 AM  57.8°F  65°F  calm  1 mph  none  0.00"  84%  69%  53°F  54°F  28.03"
Thu 04:00 AM  58.3°F  65°F  calm  calm  none  0.00"  81%  68%  52°F  54°F  28.04"
Thu 03:00 AM  58.8°F  65°F  calm  calm  none  0.00"  83%  68%  53°F  54°F  28.04"
Thu 02:00 AM  59.8°F  66°F  calm  calm  4 mph  0.00"  80%  68%  54°F  55°F  28.04"
Thu 01:00 AM  61.0°F  67°F  4 mph E  calm  5 mph  0.00"  81%  67%  55°F  55°F  28.03"
Thu 12:00 AM  62.0°F  67°F  calm  1 mph  none  0.00"  79%  66%  55°F  55°F  28.03"
Wed 11:00 PM  65.8°F  69°F  calm  1 mph  5 mph  0.00"  74%  63%  57°F  55°F  28.04"
Wed 10:00 PM  67.4°F  70°F  3 mph W  1 mph  9 mph  0.00"  66%  60%  55°F  55°F  28.04"
Wed 09:00 PM  68.4°F  72°F  5 mph W  2 mph  11 mph  0.00"  59%  56%  53°F  55°F  28.03"
Wed 08:00 PM  70.3°F  75°F  5 mph SW  3 mph  10 mph  0.00"  69%  52%  59°F  56°F  28.01"
Wed 07:00 PM  74.6°F  78°F  3 mph SW  4 mph  13 mph  0.00"  64%  46%  61°F  55°F  27.99"
Wed 06:00 PM  80.1°F  83°F  5 mph W  6 mph  14 mph  0.00"  51%  38%  60°F  54°F  27.98"
Wed 05:00 PM  85.3°F  87°F  4 mph W  6 mph  14 mph  0.00"  40%  32%  58°F  53°F  27.99"
Wed 04:00 PM  87.3°F  89°F  3 mph SW  6 mph  13 mph  0.00"  35%  29%  55°F  52°F  27.99"
Wed 03:00 PM  87.6°F  90°F  2 mph E  6 mph  13 mph  0.00"  27%  27%  49°F  51°F  28.01"
Wed 02:00 PM  85.3°F  89°F  6 mph SW  5 mph  11 mph  0.00"  32%  28%  51°F  51°F  28.03"
Wed 01:00 PM  83.8°F  87°F  4 mph SW  5 mph  9 mph  0.00"  29%  31%  47°F  52°F  28.06"
Wed 12:00 PM  79.3°F  85°F  2 mph S  4 mph  9 mph  0.00"  40%  34%  52°F  53°F  28.08"
Wed 11:00 AM  75.5°F  82°F  4 mph SE  3 mph  7 mph  0.00"  54%  41%  57°F  55°F  28.10"
Wed 10:00 AM  73.7°F  78°F  5 mph S  2 mph  5 mph  0.00"  59%  49%  58°F  57°F  28.10"
Wed 09:00 AM  69.8°F  74°F  2 mph SE  2 mph  4 mph  0.00"  68%  58%  58°F  57°F  28.10"
Wed 08:00 AM  66.9°F  70°F  calm  1 mph  3 mph  0.00"  84%  64%  62°F  57°F  28.10"
Wed 07:00 AM  59.3°F  64°F  calm  1 mph  1 mph  0.00"  92%  70%  57°F  54°F  28.09"
Wed 06:00 AM  58.5°F  64°F  calm  1 mph  2 mph  0.00"  92%  70%  56°F  54°F  28.06"

  1. Current weather data. No green row appears if the current weather data is also the high or low for the current day.
  2. High temperature for the current day.
  3. Low temperature for the current day.

The Moreno Valley, California weather pages are a service of WeatherCurrents. Moreno Valley is located in Southern California's Inland Empire, east of Riverside and north of Perris, along the State Route 60 freeway.
Copyright ©2019  WeatherCurrents. All rights reserved. - Submit questions and comments - Privacy Policy

This page automatically refreshes every 10 minutes.